Time;durP1;ratioP1;P1;durP2;ratioP2;P2;SDS_P1;SDS_P2;PMS_P1;PMS_P2;Temp;Humidity;BMP_temperature;BMP_pressure;BME280_temperature;BME280_humidity;BME280_pressure;Samples;Min_cycle;Max_cycle;Signal;HPM_P1;HPM_P2
2021/07/09 09:28:20;;;;;;;8.95;3.55;;;;;;;;;;5067336;28;20402;-71
2021/07/09 09:30:49;;;;;;;6.60;3.50;;;;;;;;;;5066998;28;20029;-61
2021/07/09 09:33:16;;;;;;;9.43;4.05;;;;;;;;;;5067309;28;20082;-57
2021/07/09 09:35:43;;;;;;;6.03;3.40;;;;;;;;;;5067184;28;20680;-65
2021/07/09 09:38:13;;;;;;;8.25;3.40;;;;;;;;;;5063632;28;20028;-66
2021/07/09 09:40:41;;;;;;;7.10;3.45;;;;;;;;;;5067229;28;20056;-57
2021/07/09 09:43:14;;;;;;;9.55;3.28;;;;;;;;;;5067262;28;20044;-62
2021/07/09 09:45:40;;;;;;;7.78;3.47;;;;;;;;;;5067409;28;20423;-62
2021/07/09 09:48:13;;;;;;;6.05;3.72;;;;;;;;;;5066416;28;20183;-64
2021/07/09 09:50:42;;;;;;;6.97;3.20;;;;;;;;;;5063705;28;20028;-64
2021/07/09 09:53:09;;;;;;;5.22;2.80;;;;;;;;;;5066130;28;20029;-73
2021/07/09 09:55:35;;;;;;;6.68;3.30;;;;;;;;;;5065747;28;20040;-71
2021/07/09 09:58:12;;;;;;;7.40;3.15;;;;;;;;;;5066323;28;20108;-65
2021/07/09 10:00:38;;;;;;;8.48;3.40;;;;;;;;;;5062595;28;20345;-62
2021/07/09 10:03:05;;;;;;;7.18;2.92;;;;;;;;;;5063001;28;20148;-63
2021/07/09 10:05:36;;;;;;;7.15;3.10;;;;;;;;;;5067175;28;20025;-61
2021/07/09 10:08:02;;;;;;;5.50;3.28;;;;;;;;;;5066066;28;20033;-63
2021/07/09 10:10:31;;;;;;;7.28;3.30;;;;;;;;;;5066310;28;20029;-60
2021/07/09 10:12:57;;;;;;;12.93;3.50;;;;;;;;;;5057101;28;20021;-58
2021/07/09 10:15:25;;;;;;;8.60;3.55;;;;;;;;;;5054075;28;20025;-59
2021/07/09 10:17:51;;;;;;;7.82;3.15;;;;;;;;;;5052510;28;20519;-61
2021/07/09 10:20:20;;;;;;;5.95;3.33;;;;;;;;;;5066875;28;20361;-63
2021/07/09 10:22:47;;;;;;;4.20;3.20;;;;;;;;;;5067353;28;20115;-62
2021/07/09 10:25:13;;;;;;;10.15;3.33;;;;;;;;;;5066689;28;20480;-60
2021/07/09 10:27:42;;;;;;;7.07;3.50;;;;;;;;;;5066419;28;20496;-66
2021/07/09 10:30:09;;;;;;;8.43;3.35;;;;;;;;;;5066674;28;20017;-59
2021/07/09 10:32:42;;;;;;;6.35;3.08;;;;;;;;;;5062886;28;20029;-60
2021/07/09 10:35:09;;;;;;;10.18;3.85;;;;;;;;;;5056410;28;20033;-60
2021/07/09 11:35:08;;;;;;;5.82;3.15;;;;;;;;;;5068232;28;20453;-58
2021/07/09 11:37:35;;;;;;;4.63;3.40;;;;;;;;;;5068104;28;20102;-59
2021/07/09 11:40:11;;;;;;;14.07;3.90;;;;;;;;;;5067731;28;20017;-61
2021/07/09 11:42:38;;;;;;;5.35;3.10;;;;;;;;;;5067386;28;20412;-59
2021/07/09 11:45:06;;;;;;;9.80;3.25;;;;;;;;;;5067644;28;20028;-60
2021/07/09 11:47:33;;;;;;;7.53;3.38;;;;;;;;;;5067466;28;20056;-58
2021/07/09 11:50:00;;;;;;;5.53;3.35;;;;;;;;;;5067293;28;20454;-65
2021/07/09 11:52:27;;;;;;;10.63;3.58;;;;;;;;;;5067180;28;20039;-60
2021/07/09 11:54:54;;;;;;;6.35;2.88;;;;;;;;;;5067427;28;20036;-59
2021/07/09 11:57:20;;;;;;;5.70;3.20;;;;;;;;;;5059433;28;20068;-62
2021/07/09 11:59:47;;;;;;;7.40;3.03;;;;;;;;;;5047426;28;20028;-65
2021/07/09 12:02:16;;;;;;;7.18;3.42;;;;;;;;;;5047279;28;20392;-59
2021/07/09 12:04:42;;;;;;;4.18;2.90;;;;;;;;;;5046721;28;20107;-58
2021/07/09 12:07:18;;;;;;;7.35;3.20;;;;;;;;;;5047321;28;20037;-60
2021/07/09 12:09:45;;;;;;;8.82;3.65;;;;;;;;;;5045871;28;20061;-58
2021/07/09 12:12:11;;;;;;;4.82;3.30;;;;;;;;;;5046087;28;20504;-64
2021/07/09 12:14:51;;;;;;;10.07;3.50;;;;;;;;;;5046569;28;20049;-67
2021/07/09 12:17:17;;;;;;;11.27;3.42;;;;;;;;;;5047402;28;20100;-58
2021/07/09 12:20:04;;;;;;;4.90;3.35;;;;;;;;;;5047557;28;20029;-63
2021/07/09 12:22:32;;;;;;;5.15;3.00;;;;;;;;;;5047289;28;20025;-59
2021/07/09 12:25:04;;;;;;;4.32;3.20;;;;;;;;;;5047488;28;20029;-67
2021/07/09 12:27:31;;;;;;;6.20;3.40;;;;;;;;;;5047179;28;20029;-58
2021/07/09 12:29:57;;;;;;;7.78;3.17;;;;;;;;;;5047360;28;20060;-58
2021/07/09 12:32:23;;;;;;;7.32;3.50;;;;;;;;;;5045817;28;20029;-61
2021/07/09 12:35:00;;;;;;;6.97;3.20;;;;;;;;;;5046685;28;20061;-57
2021/07/09 12:37:26;;;;;;;3.90;3.28;;;;;;;;;;5047026;28;20013;-61
2021/07/09 12:39:53;;;;;;;7.32;3.40;;;;;;;;;;5046928;28;20022;-57
2021/07/09 12:42:22;;;;;;;6.20;3.63;;;;;;;;;;5046919;28;20029;-57
2021/07/09 12:44:52;;;;;;;5.18;3.33;;;;;;;;;;5042805;28;20025;-58
2021/07/09 12:47:18;;;;;;;5.75;3.60;;;;;;;;;;5033769;28;20022;-57
2021/07/09 12:49:45;;;;;;;7.13;3.80;;;;;;;;;;5033775;28;20022;-57
2021/07/09 12:52:11;;;;;;;6.35;3.10;;;;;;;;;;5033402;28;20481;-64
2021/07/09 12:54:37;;;;;;;5.25;3.17;;;;;;;;;;5033520;28;20099;-61
2021/07/09 12:57:05;;;;;;;7.07;3.30;;;;;;;;;;5033216;28;20030;-61
2021/07/09 12:59:31;;;;;;;7.47;3.80;;;;;;;;;;5033067;28;20033;-62
2021/07/09 13:01:59;;;;;;;6.35;3.33;;;;;;;;;;5033261;28;20036;-59
2021/07/09 13:04:26;;;;;;;10.73;3.80;;;;;;;;;;5033386;28;20117;-64
2021/07/09 13:07:12;;;;;;;6.95;3.92;;;;;;;;;;5032878;28;20156;-58
2021/07/09 13:09:44;;;;;;;6.72;3.53;;;;;;;;;;5033163;28;20029;-59
2021/07/09 13:12:14;;;;;;;6.70;3.67;;;;;;;;;;5033175;28;20030;-63
2021/07/09 13:14:52;;;;;;;10.30;4.50;;;;;;;;;;5032141;28;20451;-60
2021/07/09 13:17:18;;;;;;;8.25;4.20;;;;;;;;;;5032846;28;20273;-59
2021/07/09 13:19:45;;;;;;;10.57;3.95;;;;;;;;;;5032960;28;20090;-66
2021/07/09 13:22:11;;;;;;;7.38;3.65;;;;;;;;;;5032843;28;20461;-67
2021/07/09 13:24:38;;;;;;;7.63;4.28;;;;;;;;;;5032361;28;20381;-59
2021/07/09 13:27:24;;;;;;;7.88;4.18;;;;;;;;;;5032844;28;20101;-61
2021/07/09 13:29:58;;;;;;;9.90;4.03;;;;;;;;;;5032565;28;20036;-68
2021/07/09 13:32:24;;;;;;;8.63;4.03;;;;;;;;;;5033329;28;20021;-59
2021/07/09 13:34:50;;;;;;;5.15;4.00;;;;;;;;;;5032333;28;20053;-64
2021/07/09 13:37:17;;;;;;;7.18;4.28;;;;;;;;;;5032194;28;20029;-60
2021/07/09 13:39:43;;;;;;;10.10;4.50;;;;;;;;;;5031384;28;20030;-64
2021/07/09 13:42:09;;;;;;;7.75;4.35;;;;;;;;;;5031762;28;20114;-62
2021/07/09 13:44:35;;;;;;;8.23;3.90;;;;;;;;;;5032114;28;20025;-61
2021/07/09 13:47:01;;;;;;;9.13;4.18;;;;;;;;;;5032392;28;20101;-58
2021/07/09 13:49:27;;;;;;;6.30;3.92;;;;;;;;;;5032513;28;20033;-63
2021/07/09 13:51:53;;;;;;;7.72;4.18;;;;;;;;;;5032570;28;20091;-62
2021/07/09 13:54:19;;;;;;;13.90;4.97;;;;;;;;;;5032169;28;20435;-64
2021/07/09 13:56:45;;;;;;;9.43;4.18;;;;;;;;;;5030826;28;20112;-62
2021/07/09 13:59:11;;;;;;;9.57;4.53;;;;;;;;;;5031254;28;20087;-63
2021/07/09 14:01:37;;;;;;;9.10;4.28;;;;;;;;;;5031444;28;20109;-66
2021/07/09 14:04:03;;;;;;;7.80;4.38;;;;;;;;;;5032017;28;20060;-60
2021/07/09 14:06:29;;;;;;;7.20;4.40;;;;;;;;;;5031926;28;20026;-65
2021/07/09 14:08:55;;;;;;;8.25;4.30;;;;;;;;;;5031985;28;20018;-62
2021/07/09 14:11:21;;;;;;;8.88;4.63;;;;;;;;;;5032017;28;20022;-67
2021/07/09 14:13:48;;;;;;;8.38;4.30;;;;;;;;;;5031607;28;20505;-60
2021/07/09 14:16:14;;;;;;;13.35;4.32;;;;;;;;;;5031717;28;20025;-62
2021/07/09 14:18:40;;;;;;;10.50;4.47;;;;;;;;;;5027688;28;20033;-60
2021/07/09 14:21:06;;;;;;;9.95;4.00;;;;;;;;;;5031746;28;20033;-59
2021/07/09 14:23:32;;;;;;;6.78;4.72;;;;;;;;;;5031515;28;20056;-66
2021/07/09 14:25:58;;;;;;;11.02;3.95;;;;;;;;;;5031440;28;20029;-63
2021/07/09 14:28:24;;;;;;;10.35;4.32;;;;;;;;;;5029977;28;20033;-64
2021/07/09 14:30:51;;;;;;;9.45;4.28;;;;;;;;;;5031676;28;20104;-61
2021/07/09 14:33:18;;;;;;;11.60;4.95;;;;;;;;;;5031168;28;20054;-60
2021/07/09 14:35:44;;;;;;;11.27;4.32;;;;;;;;;;5031098;28;20026;-60
2021/07/09 14:38:10;;;;;;;16.55;4.53;;;;;;;;;;5031019;28;20504;-60
2021/07/09 14:40:37;;;;;;;8.15;4.03;;;;;;;;;;5031290;28;20053;-60
2021/07/09 14:43:03;;;;;;;17.73;4.65;;;;;;;;;;5031326;28;20120;-59
2021/07/09 14:45:30;;;;;;;8.63;4.22;;;;;;;;;;5031439;28;20525;-60
2021/07/09 14:47:56;;;;;;;9.02;4.25;;;;;;;;;;5031451;28;20092;-60
2021/07/09 14:50:23;;;;;;;13.32;4.80;;;;;;;;;;5028542;28;20479;-60
2021/07/09 14:52:50;;;;;;;11.00;4.35;;;;;;;;;;5027910;28;20045;-58
2021/07/09 14:55:16;;;;;;;15.02;4.90;;;;;;;;;;5028183;28;20029;-60
2021/07/09 14:57:43;;;;;;;10.10;4.40;;;;;;;;;;5028402;28;20022;-60
2021/07/09 15:00:11;;;;;;;13.13;4.50;;;;;;;;;;5028462;28;20420;-60
2021/07/09 15:02:37;;;;;;;12.27;4.95;;;;;;;;;;5031209;28;20022;-62
2021/07/09 15:05:04;;;;;;;10.57;4.75;;;;;;;;;;5030768;28;20072;-61
2021/07/09 15:07:31;;;;;;;8.80;4.30;;;;;;;;;;5030803;28;20724;-60
2021/07/09 15:09:57;;;;;;;11.98;4.95;;;;;;;;;;5031235;28;20072;-60
2021/07/09 15:12:23;;;;;;;10.73;4.57;;;;;;;;;;5030877;28;20060;-58
2021/07/09 15:14:49;;;;;;;7.32;4.53;;;;;;;;;;5030937;28;20065;-61
2021/07/09 15:17:15;;;;;;;10.00;4.63;;;;;;;;;;5030818;28;20097;-60
2021/07/09 15:19:41;;;;;;;12.70;4.78;;;;;;;;;;5029932;28;20030;-59
2021/07/09 15:22:07;;;;;;;8.65;4.30;;;;;;;;;;5030556;28;20025;-59
2021/07/09 15:24:33;;;;;;;10.07;4.80;;;;;;;;;;5030782;28;20440;-61
2021/07/09 15:27:00;;;;;;;9.02;4.28;;;;;;;;;;5030742;28;20514;-60
2021/07/09 15:29:26;;;;;;;7.13;3.95;;;;;;;;;;5030792;28;20076;-60
2021/07/09 15:31:52;;;;;;;11.15;4.78;;;;;;;;;;5030425;28;20036;-60
2021/07/09 15:34:18;;;;;;;8.35;4.30;;;;;;;;;;5026754;28;20057;-59
2021/07/09 15:36:45;;;;;;;8.48;4.10;;;;;;;;;;5030285;28;20455;-62
2021/07/09 15:39:11;;;;;;;11.60;4.60;;;;;;;;;;5030194;28;20026;-60
2021/07/09 15:41:38;;;;;;;11.13;4.07;;;;;;;;;;5030116;28;20124;-61
2021/07/09 15:44:05;;;;;;;6.13;3.70;;;;;;;;;;5029601;28;20114;-62
2021/07/09 15:46:31;;;;;;;14.10;4.32;;;;;;;;;;5030341;28;20029;-60
